Time;durP1;ratioP1;P1;durP2;ratioP2;P2;SDS_P1;SDS_P2;PMS_P1;PMS_P2;Temp;Humidity;BMP_temperature;BMP_pressure;BME280_temperature;BME280_humidity;BME280_pressure;Samples;Min_cycle;Max_cycle;Signal;HPM_P1;HPM_P2
2022/01/09 00:00:30;;;;;;;28.80;4.28;;;10.10;99.90;;;;;;5057084;28;20045;-84
2022/01/09 00:02:56;;;;;;;30.63;3.90;;;8.90;99.90;;;;;;5040424;28;20074;-84
2022/01/09 00:05:22;;;;;;;33.22;5.03;;;9.50;99.90;;;;;;5040422;28;20450;-84
2022/01/09 00:07:48;;;;;;;36.08;3.63;;;7.70;99.90;;;;;;5056739;28;20051;-84
2022/01/09 00:10:15;;;;;;;31.50;4.43;;;6.90;99.90;;;;;;5040113;28;20040;-84
2022/01/09 00:12:42;;;;;;;25.65;3.80;;;8.20;99.90;;;;;;5056952;28;20044;-84
2022/01/09 00:15:09;;;;;;;34.63;3.72;;;9.80;99.90;;;;;;5041130;28;20067;-84
2022/01/09 00:17:35;;;;;;;34.30;4.20;;;9.00;99.90;;;;;;5039974;28;20047;-84
2022/01/09 00:20:01;;;;;;;29.95;3.67;;;9.90;99.90;;;;;;5040422;28;20037;-85
2022/01/09 00:22:39;;;;;;;29.15;3.75;;;9.20;99.90;;;;;;5038762;28;20420;-84
2022/01/09 00:25:05;;;;;;;29.13;3.85;;;10.00;99.90;;;;;;5039478;28;20041;-84
2022/01/09 00:27:36;;;;;;;35.67;3.75;;;8.70;99.90;;;;;;5039618;28;20044;-84
2022/01/09 00:30:03;;;;;;;30.38;4.65;;;9.50;99.90;;;;;;5056181;28;20040;-84
2022/01/09 00:32:29;;;;;;;50.67;5.97;;;9.30;99.90;;;;;;5039478;28;20048;-84
2022/01/09 00:34:54;;;;;;;47.00;4.55;;;8.60;99.90;;;;;;5052795;28;20094;-85
2022/01/09 00:37:20;;;;;;;52.72;5.43;;;9.80;99.90;;;;;;5059598;28;20415;-85
2022/01/09 00:39:46;;;;;;;50.08;5.22;;;11.50;99.90;;;;;;5076078;28;20094;-84
2022/01/09 00:42:11;;;;;;;51.15;4.35;;;10.30;99.90;;;;;;5076272;28;20052;-84
2022/01/09 00:44:37;;;;;;;46.50;6.70;;;12.30;99.90;;;;;;5059703;28;20122;-84
2022/01/09 00:47:03;;;;;;;47.38;6.13;;;9.30;99.90;;;;;;5059627;28;20038;-85
2022/01/09 00:49:28;;;;;;;51.13;7.10;;;7.50;99.90;;;;;;5059319;28;20051;-85
2022/01/09 00:51:54;;;;;;;71.38;6.63;;;12.40;99.90;;;;;;5059456;28;20040;-84
2022/01/09 00:54:22;;;;;;;37.75;5.10;;;7.00;99.90;;;;;;5075337;28;20044;-83
2022/01/09 00:56:47;;;;;;;61.47;7.43;;;9.90;99.90;;;;;;5059358;28;20087;-84
2022/01/09 00:59:13;;;;;;;50.03;6.43;;;9.30;99.90;;;;;;5075845;28;20465;-84
2022/01/09 01:01:39;;;;;;;40.25;5.35;;;9.20;99.90;;;;;;5059610;28;20040;-84
2022/01/09 01:04:04;;;;;;;40.58;5.72;;;11.30;99.90;;;;;;5075645;28;20466;-84
2022/01/09 01:06:30;;;;;;;57.85;6.70;;;9.30;99.90;;;;;;5075859;28;20044;-84
2022/01/09 01:08:56;;;;;;;48.88;5.30;;;8.10;99.90;;;;;;5059131;28;20044;-85
2022/01/09 01:11:22;;;;;;;65.43;7.38;;;10.30;99.90;;;;;;5059027;28;20044;-85
2022/01/09 01:13:48;;;;;;;48.22;5.38;;;12.30;99.90;;;;;;5059215;28;20078;-85
2022/01/09 01:16:14;;;;;;;64.80;7.38;;;9.30;99.90;;;;;;5076204;28;20519;-84
2022/01/09 01:18:43;;;;;;;64.45;8.57;;;11.60;99.90;;;;;;5058801;28;20043;-85
2022/01/09 01:21:09;;;;;;;62.65;8.23;;;8.20;99.90;;;;;;5075894;28;20048;-85
2022/01/09 01:23:34;;;;;;;58.35;7.18;;;9.70;99.90;;;;;;5059293;28;20449;-85
2022/01/09 01:26:02;;;;;;;52.10;5.50;;;7.60;99.90;;;;;;5059374;28;20556;-85
2022/01/09 01:28:28;;;;;;;51.42;6.65;;;11.70;99.90;;;;;;5059231;28;20040;-85
2022/01/09 01:30:54;;;;;;;58.47;7.47;;;7.10;99.90;;;;;;5058331;28;20040;-85
2022/01/09 01:33:20;;;;;;;36.70;5.07;;;8.40;99.90;;;;;;5059023;28;20059;-84
2022/01/09 01:35:46;;;;;;;52.17;7.25;;;;;;;;;;5058468;28;20055;-85
2022/01/09 01:38:12;;;;;;;50.17;6.57;;;9.60;99.90;;;;;;5075751;28;20051;-84
2022/01/09 01:40:37;;;;;;;41.03;5.32;;;9.80;99.90;;;;;;5075348;28;20048;-85
2022/01/09 01:43:03;;;;;;;48.15;5.97;;;12.00;99.90;;;;;;5058458;28;20036;-84
2022/01/09 01:45:29;;;;;;;47.70;6.22;;;11.30;99.90;;;;;;5059065;28;20074;-84
2022/01/09 01:47:54;;;;;;;54.47;6.43;;;11.70;99.90;;;;;;5075741;28;20808;-85
2022/01/09 01:50:20;;;;;;;37.33;4.65;;;12.70;99.90;;;;;;5058543;28;20419;-84
2022/01/09 01:52:50;;;;;;;49.63;7.20;;;12.40;99.90;;;;;;5058627;28;20036;-84
2022/01/09 01:55:17;;;;;;;52.15;6.88;;;8.50;99.90;;;;;;5058377;28;20048;-84
2022/01/09 01:57:44;;;;;;;43.40;6.70;;;9.10;99.90;;;;;;5058470;28;20051;-85
2022/01/09 02:00:13;;;;;;;42.00;5.75;;;9.80;99.90;;;;;;5058111;28;20048;-85
2022/01/09 02:05:29;;;;;;;43.03;6.60;;;11.10;99.90;;;;;;5094761;28;20103;-84
2022/01/09 02:07:58;;;;;;;30.10;4.10;;;7.50;99.90;;;;;;5063040;28;20040;-84
2022/01/09 02:10:23;;;;;;;39.40;5.45;;;11.00;99.90;;;;;;5062633;28;20440;-84
2022/01/09 02:12:52;;;;;;;36.60;5.20;;;8.70;99.90;;;;;;5062301;28;20078;-84
2022/01/09 02:15:33;;;;;;;40.13;6.85;;;10.30;99.90;;;;;;5062400;28;20040;-84
2022/01/09 02:18:03;;;;;;;38.33;7.10;;;11.40;99.90;;;;;;5062237;28;20043;-84
2022/01/09 02:20:29;;;;;;;40.63;5.20;;;9.20;99.90;;;;;;5078806;28;20069;-83
2022/01/09 02:22:59;;;;;;;36.50;5.68;;;10.60;99.90;;;;;;5078733;28;20048;-84
2022/01/09 02:25:26;;;;;;;44.85;6.43;;;10.90;99.90;;;;;;5078704;28;20036;-85
2022/01/09 02:27:52;;;;;;;42.42;5.65;;;9.00;99.90;;;;;;5062013;28;20040;-84
2022/01/09 02:30:18;;;;;;;43.05;4.35;;;9.80;99.90;;;;;;5062142;28;20093;-84
2022/01/09 02:32:43;;;;;;;38.38;4.68;;;9.60;99.90;;;;;;5061869;28;20040;-84
2022/01/09 02:35:09;;;;;;;33.67;4.47;;;10.80;99.90;;;;;;5061021;28;20056;-84
2022/01/09 02:37:35;;;;;;;39.45;4.55;;;8.40;99.90;;;;;;5060738;28;20048;-84
2022/01/09 02:40:01;;;;;;;34.03;5.22;;;8.40;99.90;;;;;;5077946;28;20510;-84
2022/01/09 02:42:29;;;;;;;32.03;5.22;;;10.60;99.90;;;;;;5078247;28;20106;-85
2022/01/09 02:44:55;;;;;;;34.28;5.50;;;11.60;99.90;;;;;;5061674;28;20478;-84
2022/01/09 02:47:22;;;;;;;26.40;4.47;;;7.00;99.90;;;;;;5078083;28;20051;-84
2022/01/09 02:49:50;;;;;;;28.70;4.57;;;7.90;99.90;;;;;;5061467;28;20131;-85
2022/01/09 02:52:33;;;;;;;34.22;4.68;;;9.10;99.90;;;;;;5061393;28;20089;-85
2022/01/09 02:57:32;;;;;;;33.72;4.68;;;11.30;99.90;;;;;;5058489;28;20048;-84
2022/01/09 02:59:59;;;;;;;31.58;4.25;;;11.70;99.90;;;;;;5074755;28;20476;-84
2022/01/09 03:02:24;;;;;;;28.20;4.75;;;9.70;99.90;;;;;;5041745;28;20445;-84
2022/01/09 03:04:50;;;;;;;19.10;3.25;;;4.30;99.90;;;;;;5041407;28;20056;-84
2022/01/09 03:07:16;;;;;;;32.13;4.90;;;12.10;99.90;;;;;;5057970;28;20461;-84
2022/01/09 03:09:41;;;;;;;33.63;5.35;;;8.00;99.90;;;;;;5041206;28;20428;-84
2022/01/09 03:12:10;;;;;;;29.67;3.80;;;9.30;99.90;;;;;;5058689;28;20044;-84
2022/01/09 03:14:36;;;;;;;52.47;4.78;;;7.80;99.90;;;;;;5074309;28;20052;-84
2022/01/09 03:17:02;;;;;;;18.20;3.45;;;9.70;99.90;;;;;;5057108;28;20037;-84
2022/01/09 03:19:28;;;;;;;19.52;3.17;;;8.00;99.90;;;;;;5057814;28;20400;-84
2022/01/09 03:21:53;;;;;;;38.30;6.30;;;8.00;99.90;;;;;;5040977;28;20048;-84
2022/01/09 03:24:19;;;;;;;25.17;3.92;;;7.80;99.90;;;;;;5057545;28;20048;-84
2022/01/09 03:26:45;;;;;;;19.65;3.25;;;9.10;99.90;;;;;;5057660;28;20951;-84
2022/01/09 03:29:10;;;;;;;41.35;4.65;;;7.80;99.90;;;;;;5057578;28;20397;-84
2022/01/09 03:31:36;;;;;;;32.33;5.57;;;9.80;99.90;;;;;;5057378;28;20472;-84
2022/01/09 03:34:02;;;;;;;39.22;3.97;;;9.40;99.90;;;;;;5058781;28;20117;-84
2022/01/09 03:36:28;;;;;;;28.90;4.20;;;7.70;99.90;;;;;;5077481;28;20571;-84
2022/01/09 03:38:53;;;;;;;41.70;4.28;;;10.20;99.90;;;;;;5077142;28;20040;-84
2022/01/09 03:41:19;;;;;;;32.35;6.25;;;9.60;99.90;;;;;;5077243;28;20040;-84
2022/01/09 03:43:45;;;;;;;26.30;4.15;;;10.20;99.90;;;;;;5060681;28;21845;-84
2022/01/09 03:46:11;;;;;;;27.75;4.28;;;9.80;99.90;;;;;;5074866;28;20499;-83
2022/01/09 03:48:36;;;;;;;24.63;3.50;;;8.90;99.90;;;;;;5058055;28;20040;-84
2022/01/09 03:51:03;;;;;;;26.77;3.53;;;11.10;99.90;;;;;;5093761;28;20079;-84
2022/01/09 03:53:30;;;;;;;24.73;3.40;;;11.00;99.90;;;;;;5076787;28;20040;-85
2022/01/09 03:55:56;;;;;;;10.07;2.38;;;10.50;99.90;;;;;;5060692;28;20036;-83
2022/01/09 03:58:22;;;;;;;14.90;2.45;;;8.40;99.90;;;;;;5060643;28;20040;-84
2022/01/09 04:00:48;;;;;;;13.75;2.72;;;9.20;99.90;;;;;;5060190;28;20101;-84
2022/01/09 04:03:13;;;;;;;20.73;4.03;;;10.20;99.90;;;;;;5060552;28;20114;-84
2022/01/09 04:05:39;;;;;;;11.88;2.90;;;10.20;99.90;;;;;;5076945;28;20169;-84
2022/01/09 04:08:05;;;;;;;16.17;2.17;;;10.10;99.90;;;;;;5060477;28;20044;-84
2022/01/09 04:10:32;;;;;;;18.98;2.70;;;10.50;99.90;;;;;;5076816;28;20044;-84
2022/01/09 04:13:00;;;;;;;21.27;3.05;;;9.80;99.90;;;;;;5060310;28;20449;-84
2022/01/09 04:15:27;;;;;;;32.28;3.92;;;8.60;99.90;;;;;;5060023;28;20043;-84
2022/01/09 04:17:54;;;;;;;25.02;4.30;;;10.60;99.90;;;;;;5076900;28;20051;-84
2022/01/09 04:20:22;;;;;;;34.30;4.20;;;10.10;99.90;;;;;;5059753;28;20135;-84
2022/01/09 04:22:49;;;;;;;38.00;4.30;;;9.40;99.90;;;;;;5059808;28;20043;-84
2022/01/09 04:25:15;;;;;;;30.88;4.13;;;11.00;99.90;;;;;;5059776;28;20043;-85
2022/01/09 04:27:42;;;;;;;34.17;5.60;;;10.60;99.90;;;;;;5075716;28;20047;-85
2022/01/09 04:30:08;;;;;;;20.52;3.40;;;10.00;99.90;;;;;;5076411;28;20046;-84
2022/01/09 04:32:34;;;;;;;23.92;4.25;;;7.50;99.90;;;;;;5076296;28;20101;-84
2022/01/09 04:35:00;;;;;;;29.38;3.70;;;7.40;99.90;;;;;;5059584;28;20056;-85
2022/01/09 04:37:26;;;;;;;32.75;3.80;;;7.40;99.90;;;;;;5059531;28;20039;-84
2022/01/09 04:39:53;;;;;;;25.50;3.47;;;10.20;99.90;;;;;;5059621;28;20040;-84
2022/01/09 04:42:21;;;;;;;24.60;5.07;;;8.50;99.90;;;;;;5039575;28;20033;-84
2022/01/09 04:44:46;;;;;;;21.80;3.85;;;7.50;99.90;;;;;;5059174;28;20040;-84
2022/01/09 04:47:15;;;;;;;22.38;3.38;;;10.60;99.90;;;;;;5059555;28;20384;-84
2022/01/09 04:49:44;;;;;;;27.50;3.17;;;10.30;99.90;;;;;;5059236;28;20036;-84
2022/01/09 04:52:14;;;;;;;26.45;3.45;;;9.70;99.90;;;;;;5059078;28;20039;-84
2022/01/09 04:54:40;;;;;;;25.85;4.20;;;5.10;99.90;;;;;;5056533;28;20048;-84
2022/01/09 04:57:06;;;;;;;28.60;4.20;;;10.60;99.90;;;;;;5059142;28;20043;-84
2022/01/09 04:59:32;;;;;;;31.98;4.53;;;7.10;99.90;;;;;;5058978;28;20446;-85
2022/01/09 05:01:58;;;;;;;28.42;3.88;;;10.60;99.90;;;;;;5059360;28;20114;-85
2022/01/09 05:04:24;;;;;;;32.17;4.95;;;9.70;99.90;;;;;;5075781;28;20050;-85
2022/01/09 05:06:49;;;;;;;26.25;4.75;;;10.50;99.90;;;;;;5075625;28;20407;-84
2022/01/09 05:09:15;;;;;;;24.15;3.38;;;8.80;99.90;;;;;;5075615;28;20043;-84
2022/01/09 05:11:41;;;;;;;18.55;3.10;;;9.60;99.90;;;;;;5059144;28;20469;-84
2022/01/09 05:14:07;;;;;;;30.45;3.88;;;9.10;99.90;;;;;;5058734;28;20443;-84
2022/01/09 05:16:32;;;;;;;26.95;4.13;;;7.40;99.90;;;;;;5075710;28;20408;-84
2022/01/09 05:19:04;;;;;;;30.98;4.43;;;10.70;99.90;;;;;;5076439;28;20039;-84
2022/01/09 05:21:30;;;;;;;13.75;3.67;;;10.70;99.90;;;;;;5058917;28;20051;-84
2022/01/09 05:23:55;;;;;;;26.70;3.00;;;10.20;99.90;;;;;;5058902;28;20476;-84
2022/01/09 05:26:21;;;;;;;29.83;3.10;;;9.90;99.90;;;;;;5059125;28;20043;-84
2022/01/09 05:28:47;;;;;;;24.00;4.53;;;10.40;99.90;;;;;;5075392;28;20071;-84
2022/01/09 05:31:12;;;;;;;21.25;3.22;;;10.20;99.90;;;;;;5058748;28;20494;-84
2022/01/09 05:33:38;;;;;;;27.45;4.18;;;10.30;99.90;;;;;;5075381;28;20442;-84
2022/01/09 05:36:04;;;;;;;12.90;2.63;;;8.20;99.90;;;;;;5074775;28;20125;-84
2022/01/09 05:38:30;;;;;;;26.55;3.85;;;7.10;99.90;;;;;;5058556;28;20078;-85
2022/01/09 05:40:56;;;;;;;15.60;3.17;;;8.40;99.90;;;;;;5062229;28;20052;-85
2022/01/09 05:43:22;;;;;;;22.77;3.28;;;8.30;99.90;;;;;;5062569;28;20074;-85
2022/01/09 05:45:48;;;;;;;20.88;3.45;;;8.50;99.90;;;;;;5079746;28;20122;-84
2022/01/09 05:48:13;;;;;;;17.70;3.10;;;8.80;99.90;;;;;;5057484;28;20158;-84
2022/01/09 05:50:39;;;;;;;21.98;3.17;;;8.20;99.90;;;;;;5062954;28;20050;-85
2022/01/09 05:53:05;;;;;;;23.10;3.35;;;8.40;99.90;;;;;;5062540;28;20127;-85
2022/01/09 05:55:31;;;;;;;25.48;4.18;;;9.20;99.90;;;;;;5079494;28;20050;-85
2022/01/09 05:57:59;;;;;;;29.33;3.30;;;7.80;99.90;;;;;;5043031;28;20101;-85
2022/01/09 06:00:25;;;;;;;24.30;3.30;;;9.70;99.90;;;;;;5064550;28;20032;-84
2022/01/09 06:02:50;;;;;;;18.15;3.47;;;9.30;99.90;;;;;;5061452;28;20411;-84
2022/01/09 06:05:16;;;;;;;30.13;4.50;;;6.90;99.90;;;;;;5054522;28;20090;-84
2022/01/09 06:07:43;;;;;;;22.48;2.78;;;7.10;99.90;;;;;;5058951;28;20044;-84
2022/01/09 06:10:09;;;;;;;21.38;3.17;;;9.50;99.90;;;;;;5055823;28;20052;-85
2022/01/09 06:12:36;;;;;;;27.05;3.35;;;9.70;99.90;;;;;;5062463;28;20048;-84
2022/01/09 06:15:02;;;;;;;18.30;2.95;;;8.40;99.90;;;;;;5062220;28;20484;-84
2022/01/09 06:17:28;;;;;;;31.05;4.95;;;7.00;99.90;;;;;;5079095;28;20446;-84
2022/01/09 06:19:54;;;;;;;14.02;3.58;;;8.50;99.90;;;;;;5078795;28;20040;-85
2022/01/09 06:22:20;;;;;;;20.85;3.70;;;8.80;99.90;;;;;;5078883;28;20052;-85
2022/01/09 06:24:47;;;;;;;24.38;3.22;;;7.90;99.90;;;;;;5062391;28;20086;-85
2022/01/09 06:27:14;;;;;;;26.00;3.80;;;9.50;99.90;;;;;;5061969;28;20511;-84
2022/01/09 06:29:39;;;;;;;16.88;3.67;;;9.30;99.90;;;;;;5078518;28;20047;-85
2022/01/09 06:32:06;;;;;;;25.15;3.00;;;7.80;99.90;;;;;;5061911;28;20048;-85
2022/01/09 06:34:58;;;;;;;16.70;2.80;;;6.90;99.90;;;;;;5078263;28;20036;-85
2022/01/09 06:37:23;;;;;;;13.40;2.13;;;6.80;99.90;;;;;;5058668;28;20075;-85
2022/01/09 06:39:49;;;;;;;7.00;1.80;;;8.50;99.90;;;;;;5041522;28;20045;-84
2022/01/09 06:42:15;;;;;;;12.48;1.67;;;9.80;99.90;;;;;;5058310;28;20080;-84
2022/01/09 06:44:41;;;;;;;4.60;1.30;;;9.70;99.90;;;;;;5058045;28;20048;-84
2022/01/09 06:47:07;;;;;;;11.23;1.67;;;7.90;99.90;;;;;;5058478;28;20493;-84
2022/01/09 06:49:34;;;;;;;4.43;1.48;;;8.90;99.90;;;;;;5058299;28;20041;-84
2022/01/09 06:52:00;;;;;;;9.10;1.80;;;6.60;99.90;;;;;;5056832;28;20504;-84
2022/01/09 06:54:26;;;;;;;15.05;2.45;;;6.60;99.90;;;;;;5058148;28;20059;-85
2022/01/09 06:56:51;;;;;;;15.45;2.33;;;6.70;99.90;;;;;;5041757;28;20094;-84
2022/01/09 06:59:17;;;;;;;12.68;2.45;;;6.80;99.90;;;;;;5041499;28;20085;-84
2022/01/09 07:01:43;;;;;;;30.83;3.60;;;9.50;99.90;;;;;;5041766;28;20044;-84
2022/01/09 07:04:08;;;;;;;18.65;2.92;;;6.60;99.90;;;;;;5057944;28;20063;-85
2022/01/09 07:06:35;;;;;;;22.33;3.92;;;6.60;99.90;;;;;;5058001;28;20044;-84
2022/01/09 07:09:01;;;;;;;17.42;3.08;;;9.20;99.90;;;;;;5040171;28;20040;-84
2022/01/09 07:11:27;;;;;;;21.35;3.28;;;8.20;99.90;;;;;;5056867;28;20130;-84
2022/01/09 07:13:52;;;;;;;24.40;4.50;;;9.20;99.90;;;;;;5057562;28;20040;-84
2022/01/09 07:16:18;;;;;;;22.80;3.28;;;9.20;99.90;;;;;;5057636;28;20047;-84
2022/01/09 07:18:44;;;;;;;17.08;3.85;;;6.80;99.90;;;;;;5057498;28;20075;-84
2022/01/09 07:24:00;;;;;;;25.48;4.28;;;9.10;99.90;;;;;;5044559;28;20052;-84
2022/01/09 07:26:26;;;;;;;24.33;3.83;;;7.90;99.90;;;;;;5036710;28;20048;-84
2022/01/09 07:28:52;;;;;;;22.55;3.67;;;6.80;99.90;;;;;;5054821;28;20056;-84
2022/01/09 07:31:18;;;;;;;23.52;4.22;;;6.70;99.90;;;;;;5057530;28;20055;-85
2022/01/09 07:33:43;;;;;;;20.25;3.28;;;6.70;99.90;;;;;;5057428;28;20074;-84
2022/01/09 07:36:09;;;;;;;23.58;3.80;;;8.20;99.90;;;;;;5060748;28;20119;-85
2022/01/09 07:38:34;;;;;;;28.20;4.15;;;6.60;99.90;;;;;;5077535;28;20095;-84
2022/01/09 07:41:00;;;;;;;19.27;3.47;;;9.70;99.90;;;;;;5077289;28;20048;-84
2022/01/09 07:43:26;;;;;;;15.75;3.40;;;9.70;99.90;;;;;;5077383;28;20098;-84
2022/01/09 07:45:51;;;;;;;23.50;4.30;;;9.20;99.90;;;;;;5077028;28;20043;-84
2022/01/09 07:48:17;;;;;;;22.35;5.03;;;9.10;99.90;;;;;;5077094;28;20093;-84
2022/01/09 07:50:43;;;;;;;17.45;3.47;;;6.60;99.90;;;;;;5060818;28;20610;-85
2022/01/09 07:53:09;;;;;;;22.52;4.13;;;9.30;99.90;;;;;;5059773;28;20059;-84
2022/01/09 07:55:34;;;;;;;21.65;3.35;;;9.40;99.90;;;;;;5060380;28;20040;-84
2022/01/09 07:58:00;;;;;;;27.35;4.70;;;8.10;99.90;;;;;;5076943;28;20051;-85
2022/01/09 08:00:26;;;;;;;33.90;4.80;;;6.70;99.90;;;;;;5076846;28;20389;-85
2022/01/09 08:02:51;;;;;;;28.70;4.18;;;7.30;99.90;;;;;;5076727;28;21854;-84
2022/01/09 08:05:17;;;;;;;11.50;2.17;;;7.50;99.90;;;;;;5060192;28;20044;-85
2022/01/09 08:07:43;;;;;;;12.40;2.60;;;9.10;99.90;;;;;;5060060;28;20036;-84
2022/01/09 08:10:10;;;;;;;11.35;3.05;;;9.00;99.90;;;;;;5059680;28;20035;-84
2022/01/09 08:12:37;;;;;;;19.42;2.45;;;6.40;99.90;;;;;;5076346;28;20055;-85
2022/01/09 08:15:04;;;;;;;17.52;2.95;;;6.50;99.90;;;;;;5060088;28;20050;-84
2022/01/09 08:17:30;;;;;;;22.23;3.33;;;6.40;99.90;;;;;;5075049;28;20043;-85
2022/01/09 08:19:55;;;;;;;21.85;3.17;;;9.00;99.90;;;;;;5075594;28;20403;-85
2022/01/09 08:22:21;;;;;;;12.75;2.20;;;8.30;99.90;;;;;;5076199;28;20047;-85
2022/01/09 08:24:49;;;;;;;18.20;2.53;;;8.50;99.90;;;;;;5076131;28;20130;-84
2022/01/09 08:27:14;;;;;;;14.10;2.25;;;9.70;99.90;;;;;;5076166;28;20063;-84
2022/01/09 08:29:40;;;;;;;12.13;2.35;;;6.40;99.90;;;;;;5076458;28;20044;-84
2022/01/09 08:32:07;;;;;;;10.85;2.53;;;6.50;99.90;;;;;;5076097;28;20039;-84
2022/01/09 08:34:33;;;;;;;14.63;2.75;;;6.50;99.90;;;;;;5076149;28;20044;-84
2022/01/09 08:36:59;;;;;;;21.58;3.00;;;9.20;99.90;;;;;;5092939;28;20408;-85
2022/01/09 08:39:25;;;;;;;12.68;2.35;;;8.80;99.90;;;;;;5075872;28;20051;-85
2022/01/09 08:41:51;;;;;;;15.40;1.92;;;8.60;99.90;;;;;;5076022;28;20044;-84
2022/01/09 08:44:17;;;;;;;4.68;1.40;;;;;;;;;;5059746;28;20051;-84
2022/01/09 08:46:43;;;;;;;8.32;1.50;;;6.40;99.90;;;;;;5075679;28;20496;-84
2022/01/09 08:49:08;;;;;;;10.85;1.40;;;7.20;99.90;;;;;;5075899;28;20042;-85
2022/01/09 08:51:34;;;;;;;9.23;1.55;;;8.90;99.90;;;;;;5075907;28;20047;-85
2022/01/09 08:54:00;;;;;;;5.30;1.33;;;6.40;99.90;;;;;;5059298;28;20060;-84
2022/01/09 08:56:27;;;;;;;3.25;0.75;;;8.60;99.90;;;;;;5059217;28;20044;-84
2022/01/09 08:58:53;;;;;;;3.55;1.23;;;6.60;99.90;;;;;;5059156;28;20040;-84
2022/01/09 09:01:19;;;;;;;19.58;2.92;;;6.10;99.90;;;;;;5075869;28;20081;-84
2022/01/09 09:03:45;;;;;;;9.18;2.47;;;8.60;99.90;;;;;;5075787;28;20043;-85
2022/01/09 09:06:12;;;;;;;9.23;2.13;;;8.20;99.90;;;;;;5059406;28;20074;-84
2022/01/09 09:08:39;;;;;;;11.35;2.25;;;8.00;99.90;;;;;;5059368;28;20048;-85
2022/01/09 09:11:05;;;;;;;17.33;2.15;;;7.90;99.90;;;;;;5059027;28;20051;-85
2022/01/09 09:13:34;;;;;;;10.43;2.20;;;6.50;99.90;;;;;;5059171;28;20071;-84
2022/01/09 09:16:00;;;;;;;17.42;2.75;;;8.40;99.90;;;;;;5075323;28;20039;-84
2022/01/09 09:18:26;;;;;;;19.35;3.10;;;6.60;99.90;;;;;;5059137;28;20435;-85
2022/01/09 09:20:51;;;;;;;18.58;3.50;;;6.60;99.90;;;;;;5058606;28;20035;-84
2022/01/09 09:23:18;;;;;;;11.40;2.85;;;6.60;99.90;;;;;;5075547;28;20127;-84
2022/01/09 09:25:44;;;;;;;18.75;2.95;;;9.00;99.90;;;;;;5073405;28;20040;-84
2022/01/09 09:28:09;;;;;;;28.77;3.83;;;9.40;99.90;;;;;;5075919;28;20066;-73
2022/01/09 09:30:35;;;;;;;16.05;3.35;;;8.30;99.90;;;;;;5074996;28;20115;-84
2022/01/09 09:33:02;;;;;;;26.13;3.30;;;8.60;99.90;;;;;;5058735;28;20105;-84
2022/01/09 09:35:28;;;;;;;16.75;3.50;;;6.70;99.90;;;;;;5074818;28;20060;-84
2022/01/09 09:37:54;;;;;;;21.63;2.95;;;6.70;99.90;;;;;;5075311;28;20112;-84
2022/01/09 09:40:20;;;;;;;20.58;3.35;;;9.00;99.90;;;;;;5075302;28;20809;-85
2022/01/09 09:42:45;;;;;;;26.77;3.00;;;8.90;99.90;;;;;;5075293;28;20098;-84
2022/01/09 09:45:12;;;;;;;16.15;3.53;;;6.70;99.90;;;;;;5058490;28;20514;-85
2022/01/09 09:47:39;;;;;;;15.20;2.85;;;6.80;99.90;;;;;;5058658;28;20084;-84
2022/01/09 09:50:12;;;;;;;10.88;2.38;;;6.70;99.90;;;;;;5075116;28;20076;-84
2022/01/09 09:52:39;;;;;;;16.52;2.63;;;6.70;99.90;;;;;;5055069;28;20494;-85
2022/01/09 09:55:05;;;;;;;10.02;2.88;;;6.60;99.90;;;;;;5049313;28;20048;-87
2022/01/09 09:57:31;;;;;;;10.38;2.22;;;6.60;99.90;;;;;;5058391;28;20478;-85
2022/01/09 10:00:04;;;;;;;15.05;2.30;;;7.30;99.90;;;;;;5074997;28;20125;-85
2022/01/09 10:02:44;;;;;;;11.43;2.83;;;6.60;99.90;;;;;;5077025;28;20051;-90
2022/01/09 10:05:11;;;;;;;11.73;2.15;;;6.60;99.90;;;;;;5059817;28;20118;-87
2022/01/09 10:07:37;;;;;;;14.15;2.10;;;9.40;99.90;;;;;;5059516;28;20047;-89
2022/01/09 10:10:09;;;;;;;10.68;2.15;;;6.60;99.90;;;;;;5058117;28;20040;-86
2022/01/09 10:12:36;;;;;;;13.60;3.33;;;6.80;99.90;;;;;;5092237;28;20055;-86
2022/01/09 10:15:06;;;;;;;20.75;3.35;;;9.70;99.90;;;;;;5058532;28;20044;-88
2022/01/09 10:17:33;;;;;;;18.75;2.90;;;6.70;99.90;;;;;;5058614;28;20048;-86
2022/01/09 10:20:04;;;;;;;20.27;3.65;;;9.50;99.90;;;;;;5058451;28;20489;-87
2022/01/09 10:22:37;;;;;;;14.65;3.13;;;6.80;99.90;;;;;;5075691;28;20055;-86
2022/01/09 10:25:21;;;;;;;12.73;2.50;;;10.10;99.90;;;;;;5075409;28;20403;-86
2022/01/09 10:27:49;;;;;;;18.63;2.88;;;7.00;99.90;;;;;;5062312;28;20043;-86
2022/01/09 10:30:16;;;;;;;12.30;2.03;;;9.80;99.90;;;;;;5062528;28;20036;-87
2022/01/09 10:32:43;;;;;;;7.10;1.88;;;7.20;99.90;;;;;;5077274;28;20066;-83
2022/01/09 10:35:13;;;;;;;19.55;3.05;;;8.90;99.90;;;;;;5093169;28;20122;-83
2022/01/09 10:37:41;;;;;;;13.90;2.50;;;7.10;99.90;;;;;;5094167;28;20048;-82
2022/01/09 10:40:09;;;;;;;13.40;2.13;;;9.40;99.90;;;;;;5094180;28;20438;-83
2022/01/09 10:42:36;;;;;;;22.88;2.45;;;7.00;99.90;;;;;;5078048;28;20693;-84
2022/01/09 10:45:20;;;;;;;10.05;2.42;;;9.10;99.90;;;;;;5063161;28;20062;-84
2022/01/09 10:47:48;;;;;;;10.57;1.80;;;7.10;99.90;;;;;;5043463;28;20047;-89
2022/01/09 10:50:32;;;;;;;16.13;2.33;;;7.00;99.90;;;;;;5080236;28;20078;-90
2022/01/09 10:53:20;;;;;;;22.00;3.00;;;4.60;99.90;;;;;;5064493;28;20047;-91
2022/01/09 10:56:00;;;;;;;10.20;1.85;;;7.00;99.90;;;;;;5064572;28;20500;-92
2022/01/09 10:58:27;;;;;;;14.20;2.78;;;6.90;99.90;;;;;;5063070;28;21383;-86
2022/01/09 11:01:10;;;;;;;18.45;2.80;;;8.00;99.90;;;;;;5061920;28;20101;-87
2022/01/09 11:03:36;;;;;;;14.50;2.50;;;6.70;99.90;;;;;;5079328;28;20070;-86
2022/01/09 11:06:03;;;;;;;8.45;1.88;;;8.10;99.90;;;;;;5061961;28;20128;-88
2022/01/09 11:08:30;;;;;;;8.48;2.20;;;6.50;99.90;;;;;;5078323;28;20048;-93
2022/01/09 11:10:58;;;;;;;14.25;2.03;;;5.90;99.90;;;;;;5063151;28;20079;-88
2022/01/09 11:13:26;;;;;;;17.52;2.15;;;9.60;99.90;;;;;;5063395;28;20048;-82
2022/01/09 11:18:39;;;;;;;9.38;2.13;;;6.40;99.90;;;;;;5079876;28;20055;-88
2022/01/09 11:21:05;;;;;;;13.32;2.88;;;10.20;99.90;;;;;;5079463;28;20118;-88
2022/01/09 11:23:52;;;;;;;17.00;2.15;;;9.20;99.90;;;;;;5062393;28;20043;-88
2022/01/09 11:26:18;;;;;;;13.93;2.10;;;6.60;99.90;;;;;;5061797;28;20130;-87
2022/01/09 11:28:50;;;;;;;12.80;1.75;;;8.60;99.90;;;;;;5062494;28;20079;-90
2022/01/09 11:31:30;;;;;;;5.40;1.60;;;6.60;99.90;;;;;;5063898;28;20040;-88
2022/01/09 11:34:15;;;;;;;7.22;1.70;;;6.70;99.90;;;;;;5062097;28;20103;-89
2022/01/09 11:37:08;;;;;;;5.88;1.58;;;7.20;99.90;;;;;;5060763;28;20060;-90
2022/01/09 11:39:36;;;;;;;8.23;1.70;;;6.70;99.90;;;;;;5063881;28;20104;-93
2022/01/09 11:42:10;;;;;;;13.20;3.13;;;6.60;99.90;;;;;;5064502;28;20052;-93
2022/01/09 11:44:45;;;;;;;11.85;2.33;;;6.60;99.90;;;;;;5062499;28;20047;-88
2022/01/09 11:47:11;;;;;;;8.95;1.85;;;6.50;99.90;;;;;;5066537;28;20044;-90
2022/01/09 11:49:59;;;;;;;6.38;1.42;;;6.40;99.90;;;;;;5063249;28;20101;-90
2022/01/09 11:52:27;;;;;;;10.77;1.70;;;6.40;99.90;;;;;;5062430;28;20126;-87
2022/01/09 11:54:59;;;;;;;6.05;1.63;;;6.50;99.90;;;;;;5060393;28;20051;-85
2022/01/09 11:57:35;;;;;;;10.05;2.03;;;6.40;99.90;;;;;;5076594;28;20048;-83
2022/01/09 12:00:04;;;;;;;17.65;2.38;;;6.40;99.90;;;;;;5089405;28;20122;-82
2022/01/09 12:02:32;;;;;;;11.82;2.10;;;6.40;99.90;;;;;;5073866;28;20440;-83
2022/01/09 12:05:02;;;;;;;6.05;2.05;;;8.50;99.90;;;;;;5076772;28;20090;-91
2022/01/09 12:07:32;;;;;;;10.80;1.50;;;;;;;;;;5079030;28;20401;-86
2022/01/09 12:10:00;;;;;;;7.47;1.52;;;6.50;99.90;;;;;;5081727;28;20040;-87
2022/01/09 12:12:32;;;;;;;10.43;1.55;;;6.40;99.90;;;;;;5069007;28;20036;-92
2022/01/09 12:15:04;;;;;;;13.82;1.58;;;6.30;99.90;;;;;;5061314;28;20132;-91
2022/01/09 12:17:33;;;;;;;7.60;1.33;;;9.10;99.90;;;;;;5062315;28;20381;-93
2022/01/09 12:20:07;;;;;;;9.48;1.50;;;6.80;99.90;;;;;;5061717;28;20042;-88
2022/01/09 12:23:02;;;;;;;9.95;2.15;;;6.30;99.90;;;;;;5061883;28;20108;-90
2022/01/09 12:25:37;;;;;;;17.50;2.67;;;6.50;99.90;;;;;;5081598;28;20079;-90
2022/01/09 12:28:08;;;;;;;17.87;2.43;;;6.50;99.90;;;;;;5060771;28;20453;-92
2022/01/09 12:30:41;;;;;;;17.73;2.72;;;7.10;99.90;;;;;;5060376;28;20118;-86
2022/01/09 12:33:12;;;;;;;26.80;3.50;;;6.70;99.90;;;;;;5060959;28;20048;-88
2022/01/09 12:35:45;;;;;;;21.63;3.45;;;7.10;99.90;;;;;;5061956;28;20040;-90
2022/01/09 12:38:18;;;;;;;21.38;2.60;;;7.30;99.90;;;;;;5059512;28;20048;-88
2022/01/09 12:40:45;;;;;;;16.90;3.83;;;7.20;99.90;;;;;;5060276;28;20497;-88
2022/01/09 12:43:13;;;;;;;19.83;3.17;;;7.40;99.90;;;;;;5080804;28;20075;-93
2022/01/09 12:45:43;;;;;;;22.95;3.30;;;7.50;99.90;;;;;;5083240;28;20043;-83
2022/01/09 12:48:18;;;;;;;15.15;2.17;;;7.60;99.90;;;;;;5056403;28;20160;-93
2022/01/09 12:50:44;;;;;;;15.37;2.00;;;7.50;99.90;;;;;;5060705;28;20075;-92
2022/01/09 12:53:19;;;;;;;9.82;1.70;;;7.30;99.90;;;;;;5060829;28;20063;-86
2022/01/09 12:55:52;;;;;;;7.13;1.38;;;7.20;99.90;;;;;;5073740;28;20128;-82
2022/01/09 12:58:23;;;;;;;13.10;1.55;;;7.10;99.90;;;;;;5084515;28;20079;-87
2022/01/09 13:00:48;;;;;;;15.57;1.98;;;7.00;99.90;;;;;;5077875;28;20101;-87